METAR Data
IDs: Format: Raw Decoded Include TAF

Data at: 0112 UTC 06 Dec 2019

KM91 060055Z AUTO 15005KT 10SM CLR 12/M00 A3008 RMK A01
KM91 060035Z AUTO 17004KT 10SM FEW037 FEW046 FEW120 12/M00 A3008 RMK A01
KM91 060015Z AUTO 16004KT 10SM FEW035 FEW042 12/M01 A3007 RMK A01
KM91 052355Z AUTO 16004KT 10SM FEW030 FEW035 FEW042 12/M01 A3007 RMK A01
KM91 052335Z AUTO 15004KT 10SM CLR 12/M00 A3007 RMK A01
KM91 052315Z AUTO 16004KT 10SM CLR 13/M01 A3007 RMK A01
KM91 052255Z AUTO 17004KT 10SM CLR 13/M01 A3006 RMK A01
KM91 052235Z AUTO 16003KT 10SM CLR 14/M01 A3006 RMK A01
KM91 052215Z AUTO 17004KT 10SM CLR 14/M01 A3006 RMK A01
KM91 052155Z AUTO 19006KT 10SM CLR 15/M00 A3006 RMK A01
KM91 052135Z AUTO 20007KT 10SM CLR 16/M00 A3006 RMK A01
KM91 052115Z AUTO 21008KT 10SM CLR 16/M00 A3006 RMK A01
KM91 052055Z AUTO 18007KT 10SM CLR 17/M00 A3006 RMK A01
KM91 052035Z AUTO 17007KT 10SM CLR 17/M00 A3006 RMK A01
KM91 052015Z AUTO 18006KT 10SM CLR 17/M00 A3006 RMK A01
KM91 051955Z AUTO 20005G12KT 10SM CLR 17/00 A3007 RMK A01
KM91 051935Z AUTO 22006G11KT 10SM CLR 16/M00 A3007 RMK A01
KM91 051915Z AUTO 19006KT 10SM CLR 16/M00 A3007 RMK A01
KM91 051855Z AUTO 19009KT 10SM CLR 16/M01 A3008 RMK A01
KM91 051835Z AUTO 18006G13KT 10SM CLR 15/M01 A3008 RMK A01
KM91 051815Z AUTO 16006KT 10SM CLR 15/M01 A3009 RMK A01
KM91 051755Z AUTO 20007KT 10SM CLR 15/M00 A3010 RMK A01
KM91 051735Z AUTO 19007KT 170V230 10SM CLR 14/M00 A3010 RMK A01
KM91 051715Z AUTO 15006KT 10SM CLR 14/M00 A3011 RMK A01
KM91 051655Z AUTO 14006KT 10SM CLR 13/01 A3011 RMK A01
KM91 051615Z AUTO 14005KT 10SM CLR 11/02 A3013 RMK A01
KM91 051555Z AUTO 16007KT 10SM CLR 10/02 A3013 RMK A01
KM91 051535Z AUTO 18006KT 10SM CLR 09/02 A3013 RMK A01
KM91 051515Z AUTO 19006KT 10SM CLR 08/02 A3013 RMK A01
KM91 051455Z AUTO 19004KT 10SM CLR 07/02 A3013 RMK A01
KM91 051435Z AUTO 18003KT 10SM CLR 05/02 A3013 RMK A01
KM91 051415Z AUTO 00000KT 10SM CLR 03/01 A3012 RMK A01
KM91 051355Z AUTO 00000KT 10SM CLR 01/01 A3011 RMK A01
KM91 051335Z AUTO 00000KT 10SM CLR M01/M01 A3010 RMK A01
KM91 051315Z AUTO 15005KT 10SM CLR M02/M02 A3009 RMK A01
KM91 051255Z AUTO 00000KT 10SM CLR M01/M02 A3009 RMK A01
KM91 051235Z AUTO 00000KT 10SM CLR 00/00 A3008 RMK A01
KM91 051215Z AUTO 25003KT 10SM CLR M02/M02 A3007 RMK A01
KM91 051155Z AUTO 00000KT 10SM CLR M01/M02 A3006 RMK A01
KM91 051135Z AUTO 24003KT 10SM CLR M01/M01 A3005 RMK A01
KM91 051115Z AUTO 10003KT 10SM CLR M01/M01 A3004 RMK A01
KM91 051055Z AUTO 12003KT 10SM CLR M01/M01 A3004 RMK A01
KM91 051035Z AUTO 00000KT 10SM CLR M01/M01 A3004 RMK A01
KM91 051015Z AUTO 00000KT 10SM CLR M00/M01 A3004 RMK A01
KM91 050955Z AUTO 00000KT 10SM CLR M00/M01 A3004 RMK A01
KM91 050935Z AUTO 00000KT 10SM CLR M00/M01 A3004 RMK A01
KM91 050915Z AUTO 00000KT 10SM CLR M00/M01 A3004 RMK A01
KM91 050855Z AUTO 00000KT 10SM CLR 01/M01 A3003 RMK A01
KM91 050835Z AUTO 00000KT 10SM CLR 02/M00 A3003 RMK A01
KM91 050810Z AUTO 00000KT 10SM CLR 02/M00 A3003 RMK A01
KM91 050755Z AUTO 00000KT 10SM CLR 03/00 A3002 RMK A01
KM91 050735Z AUTO 00000KT 10SM CLR 04/M00 A3001 RMK A01
KM91 050715Z AUTO 00000KT 10SM CLR 05/00 A3001 RMK A01
KM91 050655Z AUTO 00000KT 10SM CLR 04/00 A3001 RMK A01
KM91 050635Z AUTO 24003KT 10SM CLR 04/M00 A3001 RMK A01
KM91 050615Z AUTO 26003KT 10SM CLR 05/M00 A3001 RMK A01
KM91 050555Z AUTO 00000KT 10SM CLR 05/M00 A3001 RMK A01
KM91 050535Z AUTO 00000KT 10SM CLR 05/M00 A3000 RMK A01
KM91 050515Z AUTO 25004KT 10SM CLR 04/M00 A3000 RMK A01
KM91 050455Z AUTO 25004KT CLR 04/M01 A3000 RMK A01
KM91 050435Z AUTO 24005KT 10SM CLR 04/M01 A2999 RMK A01
KM91 050415Z AUTO 24004KT 10SM CLR 05/M01 A2998 RMK A01
KM91 050355Z AUTO 24005KT 10SM CLR 05/M01 A2998 RMK A01
KM91 050335Z AUTO 26003KT 10SM CLR 05/M01 A2998 RMK A01
KM91 050315Z AUTO 25004KT 10SM CLR 06/M02 A2998 RMK A01
KM91 050255Z AUTO 25004KT 10SM FEW040 FEW049 05/M01 A2997 RMK A01
KM91 050235Z AUTO 25003KT 10SM CLR 07/M02 A2996 RMK A01
KM91 050215Z AUTO 00000KT 10SM CLR 07/M02 A2996 RMK A01
KM91 050155Z AUTO 26003KT 10SM CLR 06/M02 A2995 RMK A01
KM91 050135Z AUTO 25004KT 10SM CLR 06/M02 A2995 RMK A01
KM91 050115Z AUTO 23004KT 10SM CLR 08/M02 A2995 RMK A01
KM91 050055Z AUTO 22003KT 10SM CLR 08/M02 A2994 RMK A01
KM91 050035Z AUTO 22003KT 10SM CLR 08/M02 A2994 RMK A01
KM91 050015Z AUTO 29003KT 10SM CLR 08/M02 A2994 RMK A01
KM91 042355Z AUTO 00000KT 10SM CLR 08/M02 A2993 RMK A01
KM91 042335Z AUTO 27005KT 10SM CLR 08/M02 A2993 RMK A01
KM91 042315Z AUTO 28005KT 10SM FEW038 10/M02 A2993 RMK A01
KM91 042255Z AUTO 29005KT 10SM CLR 10/M02 A2992 RMK A01
KM91 042235Z AUTO 29006KT 10SM CLR 11/M02 A2992 RMK A01
KM91 042215Z AUTO 29007KT 10SM CLR 12/M02 A2991 RMK A01
KM91 042155Z AUTO 29005KT 10SM CLR 13/M02 A2990 RMK A01
KM91 042135Z AUTO 29008G19KT 10SM CLR 13/M03 A2990 RMK A01
KM91 042115Z AUTO 29009G15KT 10SM CLR 14/M03 A2989 RMK A01
KM91 042055Z AUTO 29009G16KT 10SM CLR 14/M03 A2989 RMK A01
KM91 042035Z AUTO 30009KT 10SM CLR 14/M03 A2988 RMK A01
KM91 042015Z AUTO 29012KT 10SM CLR 14/M03 A2987 RMK A01